Time;durP1;ratioP1;P1;durP2;ratioP2;P2;SDS_P1;SDS_P2;PMS_P1;PMS_P2;Temp;Humidity;BMP_temperature;BMP_pressure;BME280_temperature;BME280_humidity;BME280_pressure;Samples;Min_cycle;Max_cycle;Signal;HPM_P1;HPM_P2
2020/12/17 00:02:13;;;;;;;9.90;6.57;;;;;;;;;;5050785;28;20488;-77
2020/12/17 00:04:39;;;;;;;10.20;6.97;;;;;;;;;;5050575;28;20369;-77
2020/12/17 00:07:05;;;;;;;9.68;7.20;;;;;;;;;;5050861;28;20017;-77
2020/12/17 00:09:31;;;;;;;12.48;7.95;;;;;;;;;;5050654;28;20365;-76
2020/12/17 00:11:57;;;;;;;9.20;5.72;;;;;;;;;;5050779;28;20021;-78
2020/12/17 00:14:23;;;;;;;13.07;7.55;;;;;;;;;;5051808;28;20071;-77
2020/12/17 00:16:49;;;;;;;11.73;8.18;;;;;;;;;;5050420;28;20041;-77
2020/12/17 00:19:16;;;;;;;11.85;8.15;;;;;;;;;;5050856;28;20036;-78
2020/12/17 00:21:42;;;;;;;13.75;8.68;;;;;;;;;;5050549;28;20365;-78
2020/12/17 00:24:08;;;;;;;13.05;8.73;;;;;;;;;;5050782;28;20013;-79
2020/12/17 00:26:34;;;;;;;13.05;8.77;;;;;;;;;;5054401;28;20013;-78
2020/12/17 00:29:00;;;;;;;8.50;4.65;;;;;;;;;;5055923;28;20044;-77
2020/12/17 00:31:26;;;;;;;12.20;7.72;;;;;;;;;;5054147;28;20465;-77
2020/12/17 00:33:52;;;;;;;8.88;5.85;;;;;;;;;;5054452;28;20151;-78
2020/12/17 00:36:19;;;;;;;13.40;7.85;;;;;;;;;;5054398;28;20104;-77
2020/12/17 00:38:45;;;;;;;8.98;5.43;;;;;;;;;;5054336;28;20013;-76
2020/12/17 00:41:12;;;;;;;11.65;7.07;;;;;;;;;;5054259;28;20025;-77
2020/12/17 00:43:38;;;;;;;9.85;6.90;;;;;;;;;;5054065;28;20465;-77
2020/12/17 00:46:04;;;;;;;12.88;8.25;;;;;;;;;;5055533;28;20028;-77
2020/12/17 00:48:30;;;;;;;15.18;9.13;;;;;;;;;;5053976;28;20017;-77
2020/12/17 00:50:56;;;;;;;12.85;9.02;;;;;;;;;;5054230;28;20032;-76
2020/12/17 00:53:22;;;;;;;12.38;7.32;;;;;;;;;;5053939;28;20086;-77
2020/12/17 00:55:48;;;;;;;8.75;6.18;;;;;;;;;;5055567;28;20086;-77
2020/12/17 00:58:14;;;;;;;8.85;5.72;;;;;;;;;;5054040;28;20028;-77
2020/12/17 01:00:40;;;;;;;10.55;5.47;;;;;;;;;;5055059;28;20029;-77
2020/12/17 01:03:06;;;;;;;9.63;5.72;;;;;;;;;;5054919;28;20366;-77
2020/12/17 01:05:32;;;;;;;11.90;7.15;;;;;;;;;;5054968;28;20469;-76
2020/12/17 01:07:58;;;;;;;9.20;5.88;;;;;;;;;;5053767;28;20021;-76
2020/12/17 01:10:24;;;;;;;9.18;6.45;;;;;;;;;;5054572;28;20032;-76
2020/12/17 01:12:50;;;;;;;11.15;7.07;;;;;;;;;;5055060;28;20135;-76
2020/12/17 01:15:16;;;;;;;10.70;7.30;;;;;;;;;;5054978;28;20456;-76
2020/12/17 01:17:42;;;;;;;12.68;7.97;;;;;;;;;;5053258;28;20112;-75
2020/12/17 01:20:08;;;;;;;11.88;6.97;;;;;;;;;;5054979;28;20025;-77
2020/12/17 01:22:34;;;;;;;8.43;5.63;;;;;;;;;;5053396;28;20408;-76
2020/12/17 01:25:00;;;;;;;13.48;8.88;;;;;;;;;;5053490;28;20067;-77
2020/12/17 01:27:30;;;;;;;12.73;7.72;;;;;;;;;;5053252;28;20079;-77
2020/12/17 01:29:56;;;;;;;10.25;7.55;;;;;;;;;;5054623;28;20039;-77
2020/12/17 01:32:22;;;;;;;8.93;6.50;;;;;;;;;;5053187;28;20094;-78
2020/12/17 01:34:48;;;;;;;13.75;8.38;;;;;;;;;;5054355;28;20028;-76
2020/12/17 01:37:14;;;;;;;8.85;5.97;;;;;;;;;;5052097;28;20017;-76
2020/12/17 01:39:40;;;;;;;10.40;6.35;;;;;;;;;;5054544;28;20095;-77
2020/12/17 01:42:06;;;;;;;10.57;5.70;;;;;;;;;;5054379;28;20033;-76
2020/12/17 01:44:32;;;;;;;10.70;6.18;;;;;;;;;;5053009;28;20078;-76
2020/12/17 01:46:58;;;;;;;10.27;6.22;;;;;;;;;;5053176;28;20416;-76
2020/12/17 01:49:25;;;;;;;9.27;5.13;;;;;;;;;;5054192;28;20017;-77
2020/12/17 01:51:53;;;;;;;9.90;5.68;;;;;;;;;;5053093;28;20067;-77
2020/12/17 01:54:19;;;;;;;9.88;6.57;;;;;;;;;;5052930;28;20369;-77
2020/12/17 01:56:47;;;;;;;8.30;5.28;;;;;;;;;;5052589;28;20021;-77
2020/12/17 01:59:22;;;;;;;8.00;5.05;;;;;;;;;;5054199;28;20100;-76
2020/12/17 02:01:49;;;;;;;9.50;5.72;;;;;;;;;;5052508;28;20369;-77
2020/12/17 02:04:16;;;;;;;9.70;5.80;;;;;;;;;;5054078;28;20013;-77
2020/12/17 02:06:42;;;;;;;8.93;5.18;;;;;;;;;;5052502;28;20023;-77
2020/12/17 02:09:08;;;;;;;7.70;4.90;;;;;;;;;;5052686;28;20021;-77
2020/12/17 02:11:34;;;;;;;7.20;4.72;;;;;;;;;;5053751;28;20024;-77
2020/12/17 02:14:00;;;;;;;8.38;5.43;;;;;;;;;;5053903;28;20013;-77
2020/12/17 02:16:26;;;;;;;9.55;5.93;;;;;;;;;;5052024;28;20024;-78
2020/12/17 02:18:52;;;;;;;9.45;6.60;;;;;;;;;;5053627;28;20504;-77
2020/12/17 02:21:22;;;;;;;10.90;7.78;;;;;;;;;;5052430;28;20036;-76
2020/12/17 02:23:48;;;;;;;11.33;6.13;;;;;;;;;;5052263;28;20025;-76
2020/12/17 02:26:15;;;;;;;8.45;6.10;;;;;;;;;;5053615;28;20032;-76
2020/12/17 02:28:41;;;;;;;7.95;5.25;;;;;;;;;;5052073;28;20099;-76
2020/12/17 02:31:07;;;;;;;9.00;5.30;;;;;;;;;;5052123;28;20020;-77
2020/12/17 02:33:33;;;;;;;13.25;7.38;;;;;;;;;;5051998;28;20020;-77
2020/12/17 02:35:59;;;;;;;9.50;5.75;;;;;;;;;;5052151;28;20009;-77
2020/12/17 02:38:25;;;;;;;11.40;7.22;;;;;;;;;;5053658;28;20524;-77
2020/12/17 02:40:52;;;;;;;7.80;5.53;;;;;;;;;;5051968;28;20480;-77
2020/12/17 02:43:18;;;;;;;9.18;6.57;;;;;;;;;;5053408;28;20009;-77
2020/12/17 02:45:47;;;;;;;9.13;6.22;;;;;;;;;;5052997;28;20500;-77
2020/12/17 02:48:13;;;;;;;11.23;7.25;;;;;;;;;;5051545;28;20098;-77
2020/12/17 02:50:40;;;;;;;11.48;7.18;;;;;;;;;;5051760;28;20052;-77
2020/12/17 02:53:06;;;;;;;9.75;4.57;;;;;;;;;;5051884;28;20040;-77
2020/12/17 02:55:32;;;;;;;9.32;6.22;;;;;;;;;;5052740;28;20044;-77
2020/12/17 02:57:58;;;;;;;11.90;8.00;;;;;;;;;;5053053;28;20021;-77
2020/12/17 03:00:24;;;;;;;7.90;5.13;;;;;;;;;;5051562;28;20465;-77
2020/12/17 03:02:50;;;;;;;9.02;6.53;;;;;;;;;;5051443;28;20017;-77
2020/12/17 03:05:16;;;;;;;9.25;6.05;;;;;;;;;;5051303;28;20013;-77
2020/12/17 03:07:42;;;;;;;8.88;5.22;;;;;;;;;;5052453;28;20484;-77
2020/12/17 03:10:12;;;;;;;7.63;4.90;;;;;;;;;;5052884;28;20020;-77
2020/12/17 03:12:38;;;;;;;9.35;6.13;;;;;;;;;;5051355;28;20131;-77
2020/12/17 03:15:04;;;;;;;10.75;6.55;;;;;;;;;;5051433;28;20036;-77
2020/12/17 03:17:30;;;;;;;7.85;4.65;;;;;;;;;;5052213;28;20065;-77
2020/12/17 03:20:00;;;;;;;8.10;4.68;;;;;;;;;;5051068;28;20318;-76
2020/12/17 03:22:26;;;;;;;10.18;7.50;;;;;;;;;;5051371;28;20112;-77
2020/12/17 03:24:52;;;;;;;9.70;5.57;;;;;;;;;;5051080;28;20476;-76
2020/12/17 03:27:18;;;;;;;10.48;5.93;;;;;;;;;;5051303;28;20056;-77
2020/12/17 03:29:44;;;;;;;7.60;5.43;;;;;;;;;;5050914;28;20017;-76
2020/12/17 03:32:10;;;;;;;11.82;5.93;;;;;;;;;;5051154;28;20450;-77
2020/12/17 03:34:36;;;;;;;12.55;7.43;;;;;;;;;;5051008;28;20017;-77
2020/12/17 03:37:02;;;;;;;8.80;5.22;;;;;;;;;;5051199;28;20445;-76
2020/12/17 03:39:28;;;;;;;9.63;5.72;;;;;;;;;;5052454;28;20024;-77
2020/12/17 03:41:54;;;;;;;10.35;6.65;;;;;;;;;;5052128;28;20078;-76
2020/12/17 03:44:20;;;;;;;10.85;6.50;;;;;;;;;;5051370;28;20025;-77
2020/12/17 03:46:46;;;;;;;8.38;5.28;;;;;;;;;;5052338;28;20024;-76
2020/12/17 03:49:12;;;;;;;11.55;7.95;;;;;;;;;;5051024;28;20362;-76
2020/12/17 03:51:38;;;;;;;12.45;6.38;;;;;;;;;;5052182;28;20461;-77
2020/12/17 03:54:05;;;;;;;16.55;7.45;;;;;;;;;;5050944;28;20020;-77
2020/12/17 03:56:31;;;;;;;8.30;4.22;;;;;;;;;;5050335;28;20009;-76
2020/12/17 03:58:57;;;;;;;9.68;6.18;;;;;;;;;;5050865;28;20017;-76
2020/12/17 04:01:23;;;;;;;9.30;6.65;;;;;;;;;;5054795;28;20380;-76
2020/12/17 04:03:49;;;;;;;7.72;4.55;;;;;;;;;;5056177;28;20024;-76
2020/12/17 04:06:15;;;;;;;10.02;5.55;;;;;;;;;;5054989;28;20021;-76
2020/12/17 04:28:09;;;;;;;8.15;5.28;;;;;;;;;;5052420;28;20388;-77
2020/12/17 04:30:35;;;;;;;11.70;7.78;;;;;;;;;;5054082;28;20524;-77
2020/12/17 04:33:01;;;;;;;9.77;5.88;;;;;;;;;;5054497;28;20121;-77
2020/12/17 04:35:27;;;;;;;11.10;7.82;;;;;;;;;;5055722;28;20013;-77
2020/12/17 04:37:53;;;;;;;9.38;5.70;;;;;;;;;;5054155;28;20028;-77
2020/12/17 04:40:19;;;;;;;9.52;5.28;;;;;;;;;;5054294;28;20469;-76
2020/12/17 04:42:48;;;;;;;9.07;6.03;;;;;;;;;;5054012;28;20052;-76
2020/12/17 04:45:14;;;;;;;9.73;5.47;;;;;;;;;;5055849;28;20088;-76
2020/12/17 04:47:40;;;;;;;10.07;6.25;;;;;;;;;;5054021;28;20056;-77
2020/12/17 04:50:07;;;;;;;13.30;8.13;;;;;;;;;;5054210;28;20142;-77
2020/12/17 04:52:36;;;;;;;10.98;6.97;;;;;;;;;;5054119;28;20021;-76
2020/12/17 04:55:03;;;;;;;14.18;9.93;;;;;;;;;;5055385;28;20107;-76
2020/12/17 04:57:30;;;;;;;11.30;8.40;;;;;;;;;;5055257;28;20450;-76
2020/12/17 04:59:56;;;;;;;18.25;9.00;;;;;;;;;;5053641;28;20403;-76
2020/12/17 05:02:23;;;;;;;13.20;9.23;;;;;;;;;;5053933;28;20025;-76
2020/12/17 05:04:50;;;;;;;12.98;7.75;;;;;;;;;;5053674;28;20369;-76
2020/12/17 05:07:17;;;;;;;10.13;7.38;;;;;;;;;;5055160;28;20013;-76
2020/12/17 05:09:44;;;;;;;9.18;6.65;;;;;;;;;;5053607;28;20024;-76
2020/12/17 05:12:10;;;;;;;11.77;7.93;;;;;;;;;;5054638;28;20068;-75
2020/12/17 05:14:37;;;;;;;10.85;6.95;;;;;;;;;;5053526;28;20477;-76
2020/12/17 05:17:03;;;;;;;13.63;8.35;;;;;;;;;;5053707;28;20025;-77
2020/12/17 05:19:29;;;;;;;17.63;8.73;;;;;;;;;;5053638;28;20466;-77
2020/12/17 05:21:56;;;;;;;11.50;6.75;;;;;;;;;;5054719;28;20056;-76
2020/12/17 05:24:23;;;;;;;9.32;6.85;;;;;;;;;;5053586;28;20468;-77
2020/12/17 05:26:50;;;;;;;7.95;4.88;;;;;;;;;;5053282;28;20402;-76
2020/12/17 05:29:16;;;;;;;15.05;9.85;;;;;;;;;;5053469;28;20056;-76
2020/12/17 05:31:43;;;;;;;11.68;8.05;;;;;;;;;;5053122;28;20240;-75
2020/12/17 05:34:09;;;;;;;11.48;7.63;;;;;;;;;;5054435;28;20372;-76
2020/12/17 05:36:35;;;;;;;15.30;9.85;;;;;;;;;;5053388;28;20025;-76
2020/12/17 05:39:05;;;;;;;12.35;9.05;;;;;;;;;;5053149;28;20021;-76
2020/12/17 05:41:32;;;;;;;11.75;8.38;;;;;;;;;;5053230;28;20040;-76
2020/12/17 05:44:07;;;;;;;11.57;8.60;;;;;;;;;;5052936;28;20412;-77
2020/12/17 05:46:37;;;;;;;14.43;10.15;;;;;;;;;;5054564;28;20029;-77
2020/12/17 05:49:10;;;;;;;13.23;9.55;;;;;;;;;;5054447;28;20131;-77
2020/12/17 05:51:36;;;;;;;15.50;9.77;;;;;;;;;;5053124;28;20021;-77
2020/12/17 05:54:02;;;;;;;14.38;9.75;;;;;;;;;;5053824;28;20347;-77
2020/12/17 05:56:29;;;;;;;14.00;9.05;;;;;;;;;;5053908;28;20088;-77
2020/12/17 05:59:01;;;;;;;16.17;11.15;;;;;;;;;;5054045;28;20020;-77
2020/12/17 06:01:27;;;;;;;14.02;9.25;;;;;;;;;;5052811;28;20056;-76
2020/12/17 06:03:54;;;;;;;14.30;10.25;;;;;;;;;;5053831;28;20021;-76
2020/12/17 06:06:20;;;;;;;13.60;9.57;;;;;;;;;;5052806;28;20028;-76
2020/12/17 06:08:50;;;;;;;11.95;9.00;;;;;;;;;;5052589;28;20017;-76
2020/12/17 06:11:17;;;;;;;12.02;8.63;;;;;;;;;;5054111;28;20021;-76
2020/12/17 06:13:43;;;;;;;13.25;9.63;;;;;;;;;;5053692;28;20016;-76
2020/12/17 06:16:10;;;;;;;13.50;10.65;;;;;;;;;;5052577;28;20017;-77
2020/12/17 06:18:53;;;;;;;14.73;10.40;;;;;;;;;;5053571;28;20480;-76
2020/12/17 06:21:19;;;;;;;12.95;9.60;;;;;;;;;;5052464;28;20060;-77
2020/12/17 06:23:45;;;;;;;13.77;11.40;;;;;;;;;;5053073;28;20028;-76
2020/12/17 06:26:12;;;;;;;19.13;13.05;;;;;;;;;;5053468;28;20025;-76
2020/12/17 06:28:38;;;;;;;11.77;7.93;;;;;;;;;;5052164;28;20374;-76
2020/12/17 06:31:04;;;;;;;13.68;11.48;;;;;;;;;;5053337;28;20029;-76
2020/12/17 06:33:35;;;;;;;13.55;10.85;;;;;;;;;;5052205;28;20323;-76
2020/12/17 06:36:02;;;;;;;16.90;12.93;;;;;;;;;;5053351;28;20025;-77
2020/12/17 06:38:28;;;;;;;19.67;14.82;;;;;;;;;;5052232;28;20029;-76
2020/12/17 06:40:55;;;;;;;16.95;11.73;;;;;;;;;;5051849;28;20062;-76
2020/12/17 06:43:39;;;;;;;17.42;12.07;;;;;;;;;;5052310;28;20366;-76
2020/12/17 06:46:05;;;;;;;14.00;11.80;;;;;;;;;;5051801;28;20338;-76
2020/12/17 06:48:33;;;;;;;16.77;13.50;;;;;;;;;;5051997;28;20013;-76
2020/12/17 06:50:59;;;;;;;15.57;13.23;;;;;;;;;;5051737;28;20128;-76
2020/12/17 06:53:41;;;;;;;16.08;11.82;;;;;;;;;;5053171;28;20036;-77
2020/12/17 06:56:08;;;;;;;15.48;11.60;;;;;;;;;;5051678;28;20071;-76
2020/12/17 06:58:34;;;;;;;17.52;12.38;;;;;;;;;;5051732;28;20028;-76
2020/12/17 07:01:00;;;;;;;18.63;13.68;;;;;;;;;;5051598;28;20032;-77
2020/12/17 07:03:41;;;;;;;19.67;15.40;;;;;;;;;;5053016;28;20024;-77
2020/12/17 07:06:11;;;;;;;16.98;13.48;;;;;;;;;;5052820;28;20445;-77
2020/12/17 07:08:37;;;;;;;19.17;14.70;;;;;;;;;;5051555;28;20025;-76
2020/12/17 07:11:03;;;;;;;17.02;13.82;;;;;;;;;;5051365;28;20037;-76
2020/12/17 07:13:39;;;;;;;19.17;14.77;;;;;;;;;;5052769;28;20048;-77
2020/12/17 07:16:06;;;;;;;19.45;14.15;;;;;;;;;;5051176;28;20450;-76
2020/12/17 07:18:32;;;;;;;22.40;17.60;;;;;;;;;;5052726;28;20338;-76
2020/12/17 07:21:06;;;;;;;19.77;15.45;;;;;;;;;;5052342;28;20029;-76
2020/12/17 07:23:35;;;;;;;24.80;19.73;;;;;;;;;;5054787;28;20364;-76
2020/12/17 07:26:05;;;;;;;23.97;18.90;;;;;;;;;;5060910;28;20024;-76
2020/12/17 07:28:31;;;;;;;25.25;18.42;;;;;;;;;;5061674;28;20041;-77
2020/12/17 07:30:57;;;;;;;24.92;19.25;;;;;;;;;;5058299;28;20137;-75
2020/12/17 07:33:41;;;;;;;22.63;17.13;;;;;;;;;;5060707;28;20103;-76
2020/12/17 07:36:08;;;;;;;26.02;18.60;;;;;;;;;;5060628;28;20017;-76
2020/12/17 07:38:34;;;;;;;24.33;19.95;;;;;;;;;;5060332;28;20016;-76
2020/12/17 07:41:00;;;;;;;26.30;20.23;;;;;;;;;;5059606;28;20021;-75
2020/12/17 07:43:46;;;;;;;20.60;16.08;;;;;;;;;;5060083;28;20028;-75
2020/12/17 07:46:12;;;;;;;26.88;21.17;;;;;;;;;;5059915;28;20129;-76
2020/12/17 07:48:44;;;;;;;28.70;23.15;;;;;;;;;;5058520;28;20449;-77
2020/12/17 07:51:13;;;;;;;28.90;22.88;;;;;;;;;;5059464;28;20020;-77
2020/12/17 07:53:41;;;;;;;31.52;23.08;;;;;;;;;;5071619;28;20434;-76
2020/12/17 07:56:07;;;;;;;28.25;22.27;;;;;;;;;;5062409;28;20082;-76
2020/12/17 07:58:33;;;;;;;27.95;22.73;;;;;;;;;;5051771;28;20100;-76
2020/12/17 08:01:02;;;;;;;20.98;17.48;;;;;;;;;;5049979;28;20368;-76
2020/12/17 08:03:28;;;;;;;28.13;21.00;;;;;;;;;;5050316;28;20086;-76
2020/12/17 08:06:04;;;;;;;22.98;18.83;;;;;;;;;;5050428;28;20477;-77
2020/12/17 08:08:30;;;;;;;26.15;20.95;;;;;;;;;;5050835;28;20507;-77
2020/12/17 08:10:56;;;;;;;23.45;18.77;;;;;;;;;;5050570;28;20048;-77
2020/12/17 08:13:22;;;;;;;27.52;23.00;;;;;;;;;;5050693;28;20105;-77
2020/12/17 08:15:55;;;;;;;23.13;18.17;;;;;;;;;;5050409;28;20018;-77
2020/12/17 08:18:28;;;;;;;27.95;22.13;;;;;;;;;;5050626;28;20025;-77
2020/12/17 08:21:13;;;;;;;25.92;19.27;;;;;;;;;;5051655;28;20048;-77
2020/12/17 08:23:40;;;;;;;24.13;20.70;;;;;;;;;;5050344;28;20051;-77
2020/12/17 08:26:13;;;;;;;25.20;19.98;;;;;;;;;;5050041;28;20017;-77
2020/12/17 08:28:40;;;;;;;22.02;18.23;;;;;;;;;;5050212;28;20136;-77
2020/12/17 08:31:08;;;;;;;27.83;21.38;;;;;;;;;;5050196;28;20057;-77
2020/12/17 08:33:34;;;;;;;25.90;22.15;;;;;;;;;;5050606;28;20025;-77
2020/12/17 08:36:01;;;;;;;25.67;19.75;;;;;;;;;;5050333;28;20033;-78
2020/12/17 08:38:27;;;;;;;16.98;10.95;;;;;;;;;;5050569;28;20017;-78
2020/12/17 08:40:55;;;;;;;23.83;20.60;;;;;;;;;;5050147;28;20425;-79
2020/12/17 08:43:22;;;;;;;19.83;16.58;;;;;;;;;;5050424;28;20461;-78
2020/12/17 08:45:51;;;;;;;18.38;13.57;;;;;;;;;;5051259;28;20033;-79
2020/12/17 08:48:19;;;;;;;18.05;14.68;;;;;;;;;;5054054;28;20539;-78
2020/12/17 08:50:45;;;;;;;19.55;15.43;;;;;;;;;;5053853;28;20053;-76
2020/12/17 08:53:21;;;;;;;21.92;14.80;;;;;;;;;;5053499;28;20028;-77
2020/12/17 08:56:00;;;;;;;26.67;18.70;;;;;;;;;;5053977;28;20442;-77
2020/12/17 08:58:26;;;;;;;14.68;10.80;;;;;;;;;;5053977;28;20500;-77
2020/12/17 09:00:52;;;;;;;20.63;17.05;;;;;;;;;;5053474;28;20029;-77
2020/12/17 09:03:19;;;;;;;20.42;16.02;;;;;;;;;;5053694;28;20021;-77
2020/12/17 09:06:00;;;;;;;20.40;16.50;;;;;;;;;;5053665;28;20021;-77
2020/12/17 09:08:25;;;;;;;22.23;17.63;;;;;;;;;;5055083;28;20062;-77
2020/12/17 09:10:51;;;;;;;23.35;17.23;;;;;;;;;;5053469;28;20025;-78
2020/12/17 09:13:19;;;;;;;21.40;16.25;;;;;;;;;;5053279;28;20017;-77
2020/12/17 09:15:45;;;;;;;20.23;14.93;;;;;;;;;;5053499;28;20022;-78
2020/12/17 09:18:11;;;;;;;16.58;11.73;;;;;;;;;;5053272;28;20021;-77
2020/12/17 09:20:37;;;;;;;15.95;12.95;;;;;;;;;;5053487;28;20067;-78
2020/12/17 09:23:10;;;;;;;18.30;15.15;;;;;;;;;;5053291;28;20025;-77
2020/12/17 09:25:36;;;;;;;18.52;15.20;;;;;;;;;;5054580;28;20013;-78
2020/12/17 09:28:02;;;;;;;18.90;15.07;;;;;;;;;;5052868;28;20021;-78
2020/12/17 09:30:32;;;;;;;19.77;13.93;;;;;;;;;;5053261;28;20025;-78
2020/12/17 09:32:59;;;;;;;;;;;;;;;;;;5054815;28;20013;-78
2020/12/17 09:35:33;;;;;;;15.68;12.65;;;;;;;;;;5053445;28;19904;-78
2020/12/17 09:38:02;;;;;;;17.50;11.45;;;;;;;;;;5052967;28;20021;-79
2020/12/17 09:40:28;;;;;;;15.68;12.57;;;;;;;;;;5053091;28;20087;-79
2020/12/17 09:43:08;;;;;;;16.73;11.00;;;;;;;;;;5052915;28;20044;-78
2020/12/17 09:45:38;;;;;;;10.02;7.97;;;;;;;;;;5053149;28;20021;-78
2020/12/17 09:48:20;;;;;;;15.57;11.57;;;;;;;;;;5054154;28;20020;-78
2020/12/17 09:50:51;;;;;;;12.98;8.20;;;;;;;;;;5052999;28;20032;-78
2020/12/17 09:53:17;;;;;;;12.07;7.93;;;;;;;;;;5053021;28;20078;-78
2020/12/17 09:55:43;;;;;;;14.80;8.85;;;;;;;;;;5057462;28;20027;-78
2020/12/17 09:58:09;;;;;;;14.40;9.25;;;;;;;;;;5071578;28;20354;-78
2020/12/17 10:00:35;;;;;;;12.32;7.35;;;;;;;;;;5072688;28;20029;-78
2020/12/17 10:03:01;;;;;;;13.68;7.15;;;;;;;;;;5072526;28;20095;-78
2020/12/17 10:05:27;;;;;;;11.93;6.90;;;;;;;;;;5072656;28;20056;-79
2020/12/17 10:07:53;;;;;;;10.85;7.20;;;;;;;;;;5072482;28;20118;-79
2020/12/17 10:10:20;;;;;;;11.80;7.28;;;;;;;;;;5070469;28;20051;-78
2020/12/17 10:12:46;;;;;;;11.70;6.47;;;;;;;;;;5070481;28;20013;-78
2020/12/17 10:15:12;;;;;;;11.57;5.78;;;;;;;;;;5072019;28;20021;-77
2020/12/17 10:17:38;;;;;;;13.20;6.63;;;;;;;;;;5073619;28;20441;-78
2020/12/17 10:20:05;;;;;;;12.73;6.35;;;;;;;;;;5073112;28;20024;-79
2020/12/17 10:22:31;;;;;;;9.52;6.32;;;;;;;;;;5072257;28;20036;-79
2020/12/17 10:24:57;;;;;;;10.18;5.85;;;;;;;;;;5071853;28;20021;-78
2020/12/17 10:27:23;;;;;;;10.55;5.88;;;;;;;;;;5072112;28;20021;-78
2020/12/17 10:29:50;;;;;;;11.93;5.65;;;;;;;;;;5071810;28;20037;-79
2020/12/17 10:32:18;;;;;;;12.45;6.85;;;;;;;;;;5071673;28;20108;-79
2020/12/17 10:34:44;;;;;;;10.02;5.63;;;;;;;;;;5071838;28;20487;-79
2020/12/17 10:37:10;;;;;;;10.57;6.35;;;;;;;;;;5071714;28;20055;-78
2020/12/17 10:39:36;;;;;;;10.63;5.43;;;;;;;;;;5071900;28;20016;-78
2020/12/17 10:42:03;;;;;;;11.13;6.13;;;;;;;;;;5071548;28;20028;-77
2020/12/17 10:44:29;;;;;;;11.10;6.90;;;;;;;;;;5071785;28;20480;-81
2020/12/17 10:46:56;;;;;;;14.35;7.05;;;;;;;;;;5071418;28;20025;-81
2020/12/17 10:49:22;;;;;;;14.85;6.70;;;;;;;;;;5051590;28;20021;-80
2020/12/17 10:51:51;;;;;;;10.65;4.47;;;;;;;;;;5051651;28;20025;-80
2020/12/17 10:54:17;;;;;;;10.63;5.47;;;;;;;;;;5051148;28;20031;-80
2020/12/17 10:56:47;;;;;;;9.88;6.05;;;;;;;;;;5051119;28;20025;-81
2020/12/17 10:59:13;;;;;;;12.90;5.03;;;;;;;;;;5051296;28;20025;-81
2020/12/17 11:01:39;;;;;;;12.15;6.38;;;;;;;;;;5051384;28;20291;-81
2020/12/17 11:04:05;;;;;;;8.82;4.95;;;;;;;;;;5051095;28;20443;-81
2020/12/17 11:06:31;;;;;;;10.95;5.97;;;;;;;;;;5051397;28;20116;-81
2020/12/17 11:08:57;;;;;;;11.85;5.90;;;;;;;;;;5050863;28;20115;-83
2020/12/17 11:11:23;;;;;;;12.95;6.57;;;;;;;;;;5051302;28;20112;-80
2020/12/17 11:13:50;;;;;;;11.68;4.85;;;;;;;;;;5051365;28;20017;-80
2020/12/17 11:16:17;;;;;;;11.80;6.22;;;;;;;;;;5050851;28;20020;-81
2020/12/17 11:18:44;;;;;;;9.98;5.75;;;;;;;;;;5074656;28;20071;-81
2020/12/17 11:21:11;;;;;;;13.02;5.93;;;;;;;;;;5080593;28;20108;-81
2020/12/17 11:23:37;;;;;;;11.95;5.70;;;;;;;;;;5085076;28;20107;-81
2020/12/17 11:26:03;;;;;;;11.32;5.28;;;;;;;;;;5074406;28;20239;-79
2020/12/17 11:28:29;;;;;;;11.38;3.60;;;;;;;;;;5086117;28;20041;-82
2020/12/17 11:30:55;;;;;;;15.32;6.00;;;;;;;;;;5079258;28;20103;-82
2020/12/17 11:33:22;;;;;;;9.50;4.05;;;;;;;;;;5081171;28;20451;-79
2020/12/17 11:35:48;;;;;;;7.53;4.22;;;;;;;;;;5087835;28;20020;-81
2020/12/17 11:38:15;;;;;;;9.30;3.47;;;;;;;;;;5079261;28;20035;-82
2020/12/17 11:40:41;;;;;;;8.32;3.55;;;;;;;;;;5070309;28;20024;-80
2020/12/17 11:43:07;;;;;;;9.43;4.57;;;;;;;;;;5070519;28;20082;-80
2020/12/17 11:45:33;;;;;;;13.35;5.25;;;;;;;;;;5070626;28;20431;-80
2020/12/17 11:47:59;;;;;;;13.23;5.22;;;;;;;;;;5068613;28;20400;-79
2020/12/17 11:50:26;;;;;;;10.55;4.82;;;;;;;;;;5072304;28;20027;-78
2020/12/17 11:52:52;;;;;;;12.98;4.85;;;;;;;;;;5071968;28;20059;-78
2020/12/17 11:55:18;;;;;;;10.82;5.88;;;;;;;;;;5070251;28;20017;-78
2020/12/17 11:57:48;;;;;;;12.77;6.22;;;;;;;;;;5072248;28;20484;-78
2020/12/17 12:00:14;;;;;;;10.93;5.15;;;;;;;;;;5071649;28;20055;-78
2020/12/17 12:02:41;;;;;;;12.40;6.18;;;;;;;;;;5070681;28;20368;-78
2020/12/17 12:05:08;;;;;;;14.70;6.50;;;;;;;;;;5071468;28;20087;-78
2020/12/17 12:07:34;;;;;;;10.68;5.07;;;;;;;;;;5070717;28;20013;-78
2020/12/17 12:10:02;;;;;;;11.80;6.00;;;;;;;;;;5070486;28;20354;-78
2020/12/17 12:12:28;;;;;;;19.30;7.43;;;;;;;;;;5070609;28;20452;-78
2020/12/17 12:14:54;;;;;;;11.65;6.10;;;;;;;;;;5070603;28;20139;-77
2020/12/17 12:17:20;;;;;;;16.02;6.65;;;;;;;;;;5070442;28;20481;-78
2020/12/17 12:19:47;;;;;;;13.73;6.32;;;;;;;;;;5070661;28;20039;-77
2020/12/17 12:22:13;;;;;;;17.30;6.07;;;;;;;;;;5073874;28;20421;-77
2020/12/17 12:24:39;;;;;;;16.35;6.45;;;;;;;;;;5074582;28;20027;-77
2020/12/17 12:27:05;;;;;;;14.35;6.85;;;;;;;;;;5074197;28;20024;-78
2020/12/17 12:29:31;;;;;;;11.60;5.95;;;;;;;;;;5071972;28;20071;-78
2020/12/17 12:31:57;;;;;;;14.70;6.07;;;;;;;;;;5073446;28;20046;-78
2020/12/17 12:34:25;;;;;;;16.98;7.13;;;;;;;;;;5074083;28;20028;-78
2020/12/17 12:36:52;;;;;;;16.17;6.65;;;;;;;;;;5074247;28;20027;-74
2020/12/17 12:39:18;;;;;;;14.63;5.88;;;;;;;;;;5075213;28;20020;-74
2020/12/17 12:41:45;;;;;;;11.10;6.07;;;;;;;;;;5074043;28;20082;-76
2020/12/17 12:44:11;;;;;;;15.23;6.25;;;;;;;;;;5075001;28;20016;-76
2020/12/17 12:46:37;;;;;;;13.68;6.22;;;;;;;;;;5073952;28;20036;-76
2020/12/17 12:49:03;;;;;;;13.38;6.57;;;;;;;;;;5060600;28;20021;-79
2020/12/17 12:51:29;;;;;;;12.32;5.85;;;11.50;80.10;;;;;;5053775;28;20142;-78
2020/12/17 12:53:54;;;;;;;12.20;5.88;;;11.60;81.00;;;;;;5055218;28;20017;-78
2020/12/17 12:56:27;;;;;;;12.95;5.97;;;11.60;81.30;;;;;;5053545;28;20052;-76
2020/12/17 12:58:53;;;;;;;12.95;6.00;;;11.60;82.10;;;;;;5055114;28;20078;-75
2020/12/17 13:01:19;;;;;;;18.90;6.40;;;11.60;83.70;;;;;;5053328;28;20039;-77
2020/12/17 13:03:45;;;;;;;15.55;5.63;;;11.60;82.60;;;;;;5054946;28;20403;-77
2020/12/17 13:06:19;;;;;;;19.42;5.20;;;11.60;82.90;;;;;;5063214;28;20024;-78
2020/12/17 13:08:48;;;;;;;10.95;5.45;;;11.60;81.60;;;;;;5074861;28;20038;-77
2020/12/17 13:11:21;;;;;;;17.02;6.55;;;11.60;81.40;;;;;;5073300;28;20025;-78
2020/12/17 13:13:48;;;;;;;14.35;5.70;;;11.60;81.90;;;;;;5073451;28;20031;-77
2020/12/17 13:16:28;;;;;;;10.95;4.63;;;11.60;81.90;;;;;;5073060;28;20058;-77
2020/12/17 13:18:54;;;;;;;16.42;4.85;;;11.60;81.40;;;;;;5075019;28;20028;-77
2020/12/17 13:21:20;;;;;;;13.32;4.75;;;11.60;80.80;;;;;;5071401;28;20063;-78
2020/12/17 13:23:48;;;;;;;11.02;5.45;;;11.60;82.30;;;;;;5061527;28;20109;-77
2020/12/17 13:26:13;;;;;;;12.00;4.78;;;11.60;81.40;;;;;;5074294;28;20123;-78
2020/12/17 13:28:39;;;;;;;11.65;3.83;;;11.60;81.70;;;;;;5074364;28;20460;-78
2020/12/17 13:31:05;;;;;;;19.25;5.70;;;11.60;82.90;;;;;;5059892;28;20020;-78
2020/12/17 13:33:31;;;;;;;10.23;3.60;;;11.50;80.50;;;;;;5063256;28;20353;-75
2020/12/17 13:35:57;;;;;;;11.25;4.00;;;11.50;81.20;;;;;;5073177;28;20162;-79
2020/12/17 13:38:22;;;;;;;13.73;4.90;;;11.40;80.40;;;;;;5072109;28;20111;-79
2020/12/17 13:40:48;;;;;;;13.27;3.97;;;11.40;81.70;;;;;;5056475;28;20461;-75
2020/12/17 13:43:14;;;;;;;14.50;4.45;;;11.40;81.30;;;;;;5053954;28;20339;-75
2020/12/17 13:45:39;;;;;;;12.93;5.03;;;11.30;81.10;;;;;;5054174;28;20079;-76
2020/12/17 13:48:05;;;;;;;17.35;4.53;;;11.40;82.20;;;;;;5057366;28;20023;-76
2020/12/17 13:50:30;;;;;;;10.25;3.72;;;11.40;80.70;;;;;;5072425;28;20441;-77
2020/12/17 13:52:56;;;;;;;12.30;3.70;;;11.40;81.30;;;;;;5072796;28;20077;-79
2020/12/17 13:55:21;;;;;;;11.15;3.65;;;11.40;81.30;;;;;;5072610;28;20024;-82
2020/12/17 13:57:47;;;;;;;12.57;4.05;;;11.40;81.20;;;;;;5073812;28;20027;-79
2020/12/17 14:00:13;;;;;;;14.60;4.28;;;11.40;80.80;;;;;;5072480;28;20420;-80
2020/12/17 14:02:38;;;;;;;11.57;4.25;;;11.40;81.90;;;;;;5072446;28;20369;-78
2020/12/17 14:05:04;;;;;;;13.82;4.38;;;11.40;83.40;;;;;;5072360;28;20108;-78
2020/12/17 14:07:30;;;;;;;10.20;3.25;;;11.40;80.70;;;;;;5072558;28;20008;-77
2020/12/17 14:09:56;;;;;;;15.90;4.00;;;11.40;81.80;;;;;;5072419;28;20445;-78
2020/12/17 14:12:21;;;;;;;12.48;3.85;;;11.40;81.20;;;;;;5072269;28;20032;-77
2020/12/17 14:14:47;;;;;;;11.27;3.25;;;11.40;83.80;;;;;;5072062;28;20021;-77
2020/12/17 14:17:12;;;;;;;13.48;3.38;;;11.40;81.00;;;;;;5072140;28;20052;-80
2020/12/17 14:19:38;;;;;;;17.75;3.17;;;11.50;81.50;;;;;;5072302;28;20017;-83
2020/12/17 14:22:03;;;;;;;7.40;3.33;;;11.40;80.70;;;;;;5072033;28;20028;-75
2020/12/17 14:24:29;;;;;;;14.73;4.88;;;11.40;80.00;;;;;;5070467;28;20522;-77
2020/12/17 14:26:54;;;;;;;8.32;2.50;;;11.40;81.10;;;;;;5071991;28;20514;-76
2020/12/17 14:29:21;;;;;;;11.18;3.10;;;11.40;80.90;;;;;;5073239;28;20052;-76
2020/12/17 14:31:47;;;;;;;13.63;2.90;;;11.40;80.90;;;;;;5071105;28;20024;-77
2020/12/17 14:34:13;;;;;;;9.25;2.58;;;11.40;79.30;;;;;;5071160;28;20032;-80